createdAt,value
2017-05-19T00:01:28.617Z,51.50
2017-05-19T00:03:56.055Z,53.44
2017-05-19T00:06:22.757Z,46.06
2017-05-19T00:08:49.498Z,44.94
2017-05-19T00:11:16.208Z,42.12
2017-05-19T00:13:42.885Z,47.28
2017-05-19T00:16:09.939Z,51.66
2017-05-19T00:18:36.622Z,46.58
2017-05-19T00:21:03.312Z,45.82
2017-05-19T00:23:30.020Z,43.72
2017-05-19T00:25:56.694Z,41.46
2017-05-19T00:28:23.392Z,45.62
2017-05-19T00:30:50.087Z,47.04
2017-05-19T00:33:16.790Z,38.08
2017-05-19T00:35:44.238Z,47.20
2017-05-19T00:38:10.922Z,43.16
2017-05-19T00:40:37.599Z,41.30
2017-05-19T00:43:04.306Z,46.24
2017-05-19T00:45:31.039Z,43.46
2017-05-19T00:47:57.743Z,44.86
2017-05-19T00:50:25.162Z,43.60
2017-05-19T00:52:51.843Z,43.88
2017-05-19T00:55:19.284Z,45.58
2017-05-19T00:57:46.059Z,47.32
2017-05-19T01:00:12.784Z,47.80
2017-05-19T01:02:40.263Z,45.92
2017-05-19T01:05:06.911Z,47.00
2017-05-19T01:07:33.601Z,48.18
2017-05-19T01:10:00.292Z,47.86
2017-05-19T01:12:26.990Z,46.38
2017-05-19T01:14:54.447Z,41.72
2017-05-19T01:17:21.138Z,53.16
2017-05-19T01:19:47.954Z,46.80
2017-05-19T01:22:15.380Z,50.60
2017-05-19T01:24:42.847Z,47.04
2017-05-19T01:27:09.523Z,46.26
2017-05-19T01:29:36.202Z,54.66
2017-05-19T01:32:02.908Z,48.20
2017-05-19T01:34:29.599Z,49.70
2017-05-19T01:36:56.424Z,51.82
2017-05-19T01:39:23.113Z,51.96
2017-05-19T01:41:50.548Z,52.94
2017-05-19T01:44:17.241Z,47.70
2017-05-19T01:46:43.914Z,52.78
2017-05-19T01:49:10.614Z,51.50
2017-05-19T01:51:37.295Z,52.88
2017-05-19T01:54:03.970Z,50.00
2017-05-19T01:56:31.399Z,54.58
2017-05-19T01:58:58.906Z,54.46
2017-05-19T02:01:25.615Z,56.16
2017-05-19T02:03:53.039Z,58.04
2017-05-19T02:06:19.710Z,55.70
2017-05-19T02:08:47.144Z,52.26
2017-05-19T02:11:13.831Z,49.48
2017-05-19T02:13:40.534Z,58.08
2017-05-19T02:16:07.228Z,53.48
2017-05-19T02:18:33.935Z,57.02
2017-05-19T02:21:01.380Z,55.16
2017-05-19T02:23:28.073Z,55.32
2017-05-19T02:25:54.769Z,59.18
2017-05-19T02:28:22.198Z,53.98
2017-05-19T02:30:48.886Z,50.32
2017-05-19T02:33:15.579Z,51.98
2017-05-19T02:35:42.275Z,50.24
2017-05-19T02:38:08.983Z,46.32
2017-05-19T02:40:36.410Z,53.10
2017-05-19T02:43:03.107Z,51.78
2017-05-19T02:45:29.813Z,58.48
2017-05-19T02:47:56.490Z,53.14
2017-05-19T02:50:23.195Z,58.62
2017-05-19T02:52:49.876Z,54.72
2017-05-19T02:55:16.570Z,56.28
2017-05-19T02:57:43.264Z,51.26
2017-05-19T03:00:09.950Z,59.92
2017-05-19T03:02:36.634Z,60.06
2017-05-19T03:05:03.369Z,58.94
2017-05-19T03:07:30.052Z,60.02
2017-05-19T03:09:56.735Z,56.30
2017-05-19T03:12:24.188Z,50.10
2017-05-19T03:14:51.615Z,62.10
2017-05-19T03:17:18.313Z,53.30
2017-05-19T03:19:45.021Z,61.96
2017-05-19T03:22:12.459Z,52.24
2017-05-19T03:24:39.168Z,58.30
2017-05-19T03:27:06.072Z,54.50
2017-05-19T03:29:33.514Z,55.42
2017-05-19T03:35:07.730Z,59.98
2017-05-19T03:37:34.423Z,53.34
2017-05-19T03:40:01.108Z,55.18
2017-05-19T03:42:27.800Z,58.10
2017-05-19T03:44:54.492Z,56.36
2017-05-19T03:47:21.203Z,65.82
2017-05-19T03:49:47.875Z,54.72
2017-05-19T03:52:14.559Z,64.34
2017-05-19T03:54:41.247Z,53.32
2017-05-19T03:57:07.927Z,56.62
2017-05-19T03:59:35.376Z,57.42
2017-05-19T04:02:02.050Z,56.76
2017-05-19T04:04:28.743Z,49.98
2017-05-19T04:06:55.434Z,59.06
2017-05-19T04:09:22.119Z,66.76
2017-05-19T04:11:48.818Z,67.72
2017-05-19T04:14:15.503Z,60.12
2017-05-19T04:16:42.191Z,68.56
2017-05-19T04:19:08.896Z,59.62
2017-05-19T04:21:35.607Z,65.50
2017-05-19T04:24:02.287Z,57.98
2017-05-19T04:26:29.712Z,58.80
2017-05-19T04:28:56.410Z,62.10
2017-05-19T04:31:23.112Z,63.22
2017-05-19T04:33:49.816Z,59.72
2017-05-19T04:36:16.499Z,77.36
2017-05-19T04:38:43.921Z,62.02
2017-05-19T04:41:10.606Z,69.44
2017-05-19T04:43:38.052Z,70.58
2017-05-19T04:46:05.507Z,78.46
2017-05-19T04:48:32.196Z,76.52
2017-05-19T04:50:58.876Z,71.78
2017-05-19T04:53:25.570Z,74.24
2017-05-19T04:55:52.265Z,75.12
2017-05-19T04:58:18.967Z,89.54
2017-05-19T05:00:45.648Z,91.92
2017-05-19T05:03:12.323Z,96.72
2017-05-19T05:05:39.012Z,89.68
2017-05-19T05:08:05.690Z,79.48
2017-05-19T05:10:32.448Z,93.62
2017-05-19T05:12:59.131Z,92.20
2017-05-19T05:15:25.911Z,90.16
2017-05-19T05:17:53.387Z,82.20
2017-05-19T05:20:20.066Z,77.76
2017-05-19T05:22:46.782Z,72.36
2017-05-19T05:25:13.458Z,65.24
2017-05-19T05:27:40.143Z,67.12
2017-05-19T05:30:06.823Z,64.76
2017-05-19T05:32:33.503Z,62.16
2017-05-19T05:35:00.954Z,53.54
2017-05-19T05:37:28.370Z,54.68
2017-05-19T05:39:55.050Z,54.18
2017-05-19T05:42:22.472Z,51.26
2017-05-19T05:44:49.164Z,44.36
2017-05-19T05:47:15.880Z,49.28
2017-05-19T05:49:42.567Z,46.42
2017-05-19T05:52:09.243Z,48.18
2017-05-19T05:54:36.239Z,45.82
2017-05-19T05:57:02.917Z,45.24
2017-05-19T05:59:30.612Z,39.12
2017-05-19T06:01:57.409Z,38.10
2017-05-19T06:04:24.088Z,36.66
2017-05-19T06:06:50.767Z,37.56
2017-05-19T06:09:17.446Z,36.74
2017-05-19T06:11:44.150Z,37.06
2017-05-19T06:14:10.829Z,36.90
2017-05-19T06:16:37.506Z,35.10
2017-05-19T06:19:04.923Z,32.50
2017-05-19T06:21:31.603Z,33.64
2017-05-19T06:23:59.051Z,30.18
2017-05-19T06:26:26.495Z,26.12
2017-05-19T06:28:53.171Z,26.20
2017-05-19T06:31:19.879Z,25.60
2017-05-19T06:33:46.559Z,25.28
2017-05-19T06:36:13.272Z,25.20
2017-05-19T06:38:40.691Z,26.32
2017-05-19T06:41:07.392Z,27.12
2017-05-19T06:43:34.070Z,26.14
2017-05-19T06:46:00.762Z,25.88
2017-05-19T06:48:28.232Z,26.66
2017-05-19T06:50:54.914Z,28.54
2017-05-19T06:53:21.618Z,26.72
2017-05-19T06:55:48.299Z,23.52
2017-05-19T06:58:14.971Z,21.58
2017-05-19T07:00:42.435Z,18.18
2017-05-19T07:03:09.864Z,17.30
2017-05-19T07:05:36.548Z,17.16
2017-05-19T07:08:03.232Z,16.02
2017-05-19T07:10:29.913Z,14.06
2017-05-19T07:12:56.636Z,12.44
2017-05-19T07:15:23.314Z,10.90
2017-05-19T07:17:50.012Z,10.16
2017-05-19T07:20:16.703Z,11.08
2017-05-19T07:22:43.371Z,12.36
2017-05-19T07:25:10.351Z,11.76
2017-05-19T07:27:37.771Z,11.12
2017-05-19T07:30:04.754Z,10.74
2017-05-19T07:32:32.204Z,11.26
2017-05-19T07:34:58.884Z,10.38
2017-05-19T07:37:25.567Z,10.26
2017-05-19T07:39:52.287Z,11.54
2017-05-19T07:42:18.980Z,10.74
2017-05-19T07:44:46.451Z,10.20
2017-05-19T07:47:13.157Z,11.58
2017-05-19T07:49:39.842Z,10.32
2017-05-19T07:52:06.515Z,11.02
2017-05-19T07:54:33.214Z,9.82
2017-05-19T07:56:59.891Z,10.10
2017-05-19T07:59:26.580Z,7.70
2017-05-19T08:01:54.034Z,7.28
2017-05-19T08:04:21.455Z,9.02
2017-05-19T08:06:48.146Z,8.34
2017-05-19T08:09:14.860Z,7.70
2017-05-19T08:11:41.550Z,7.20
2017-05-19T08:14:08.223Z,8.28
2017-05-19T08:16:34.939Z,7.36
2017-05-19T08:19:01.624Z,8.04
2017-05-19T08:21:28.303Z,8.50
2017-05-19T08:23:55.004Z,8.72
2017-05-19T08:26:21.692Z,8.36
2017-05-19T08:28:48.372Z,8.60
2017-05-19T08:31:15.098Z,9.46
2017-05-19T08:33:41.780Z,10.04
2017-05-19T08:36:09.202Z,11.60
2017-05-19T08:38:35.922Z,13.98
2017-05-19T08:41:02.611Z,9.90
2017-05-19T08:43:30.270Z,9.60
2017-05-19T08:45:57.735Z,9.48
2017-05-19T08:48:25.155Z,9.40
2017-05-19T08:50:51.854Z,12.94
2017-05-19T08:53:18.563Z,12.28
2017-05-19T08:55:45.555Z,13.62
2017-05-19T08:58:12.235Z,11.76
2017-05-19T09:00:38.930Z,10.92
2017-05-19T09:03:05.614Z,9.84
2017-05-19T09:05:32.290Z,10.46
2017-05-19T09:07:59.727Z,11.18
2017-05-19T09:10:26.407Z,11.34
2017-05-19T09:12:53.078Z,11.82
2017-05-19T09:15:19.788Z,13.28
2017-05-19T09:17:46.479Z,14.44
2017-05-19T09:20:13.159Z,15.46
2017-05-19T09:22:39.891Z,16.62
2017-05-19T09:25:06.573Z,15.14
2017-05-19T09:27:33.256Z,16.42
2017-05-19T09:30:00.715Z,16.86
2017-05-19T09:32:28.148Z,17.42
2017-05-19T09:34:54.832Z,16.26
2017-05-19T09:37:21.543Z,15.02
2017-05-19T09:39:48.229Z,13.22
2017-05-19T09:42:14.923Z,12.34
2017-05-19T09:44:41.619Z,11.48
2017-05-19T09:47:08.300Z,11.40
2017-05-19T09:49:35.034Z,11.86
2017-05-19T09:52:01.806Z,11.48
2017-05-19T09:54:29.228Z,11.04
2017-05-19T09:56:55.901Z,17.24
2017-05-19T09:59:22.615Z,11.98
2017-05-19T10:01:56.207Z,12.26
2017-05-19T10:04:22.907Z,14.12
2017-05-19T10:06:49.603Z,12.48
2017-05-19T10:09:16.287Z,13.66
2017-05-19T10:11:42.983Z,13.28
2017-05-19T10:14:09.672Z,15.98
2017-05-19T10:16:36.360Z,15.68
2017-05-19T10:19:03.067Z,16.48
2017-05-19T10:21:29.748Z,17.58
2017-05-19T10:23:56.432Z,17.34
2017-05-19T10:26:23.128Z,17.26
2017-05-19T10:28:49.808Z,16.48
2017-05-19T10:31:16.520Z,16.28
2017-05-19T10:33:44.384Z,16.10
2017-05-19T10:36:11.803Z,17.66
2017-05-19T10:38:38.502Z,21.14
2017-05-19T10:41:05.175Z,21.00
2017-05-19T10:43:31.867Z,20.00
2017-05-19T10:45:59.292Z,20.70
2017-05-19T10:48:25.984Z,22.86
2017-05-19T10:50:52.658Z,20.92
2017-05-19T10:53:19.363Z,22.20
2017-05-19T10:55:46.039Z,23.12
2017-05-19T10:58:12.718Z,22.18
2017-05-19T11:00:40.172Z,19.70
2017-05-19T11:03:07.624Z,19.64
2017-05-19T11:05:34.306Z,20.04
2017-05-19T11:08:01.016Z,18.48
2017-05-19T11:10:28.431Z,18.20
2017-05-19T11:12:55.106Z,19.92
2017-05-19T11:15:21.806Z,19.88
2017-05-19T11:17:48.483Z,20.66
2017-05-19T11:20:15.163Z,20.52
2017-05-19T11:22:41.863Z,18.70
2017-05-19T11:25:08.555Z,18.72
2017-05-19T11:27:35.233Z,17.90
2017-05-19T11:30:01.950Z,17.10
2017-05-19T11:32:28.644Z,19.10
2017-05-19T11:34:56.062Z,14.52
2017-05-19T11:37:22.779Z,11.78
2017-05-19T11:39:49.479Z,13.06
2017-05-19T11:42:16.948Z,10.22
2017-05-19T11:44:43.668Z,10.66
2017-05-19T11:47:11.091Z,8.18
2017-05-19T11:49:37.778Z,10.30
2017-05-19T11:52:05.225Z,9.96
2017-05-19T11:54:32.646Z,10.78
2017-05-19T11:56:59.322Z,11.16
2017-05-19T11:59:26.037Z,12.50
2017-05-19T12:01:52.730Z,11.50
2017-05-19T12:04:19.403Z,11.44
2017-05-19T12:06:46.139Z,12.62
2017-05-19T12:09:12.820Z,12.60
2017-05-19T12:11:39.478Z,12.58
2017-05-19T12:14:06.920Z,11.52
2017-05-19T12:16:33.592Z,13.00
2017-05-19T12:19:00.332Z,13.54
2017-05-19T12:21:27.019Z,12.24
2017-05-19T12:23:53.694Z,11.94
2017-05-19T12:26:21.107Z,13.32
2017-05-19T12:29:19.393Z,12.76
2017-05-19T12:31:46.121Z,12.72
2017-05-19T12:34:12.823Z,12.32
2017-05-19T12:36:39.520Z,11.98
2017-05-19T12:39:07.240Z,12.86
2017-05-19T12:41:33.944Z,12.44
2017-05-19T12:44:00.650Z,12.98
2017-05-19T12:46:27.334Z,11.78
2017-05-19T12:48:54.023Z,12.46
2017-05-19T12:51:20.730Z,12.00
2017-05-19T12:53:47.415Z,13.86
2017-05-19T12:56:14.122Z,12.50
2017-05-19T12:58:40.824Z,12.36
2017-05-19T13:01:07.520Z,11.14
2017-05-19T13:03:34.223Z,10.42
2017-05-19T13:06:00.907Z,11.68
2017-05-19T13:08:27.600Z,11.10
2017-05-19T13:10:54.320Z,11.88
2017-05-19T13:13:21.006Z,12.00
2017-05-19T13:15:47.690Z,10.66
2017-05-19T13:18:13.647Z,8.94
2017-05-19T13:20:40.339Z,10.04
2017-05-19T13:23:07.051Z,10.46
2017-05-19T13:25:33.735Z,8.50
2017-05-19T13:28:00.419Z,9.30
2017-05-19T13:30:27.126Z,8.80
2017-05-19T13:32:53.835Z,9.34
2017-05-19T13:35:20.552Z,10.14
2017-05-19T13:37:47.238Z,9.98
2017-05-19T13:40:13.931Z,10.68
2017-05-19T13:42:40.627Z,10.72
2017-05-19T13:45:07.307Z,11.08
2017-05-19T13:47:34.021Z,10.00
2017-05-19T13:50:00.706Z,9.48
2017-05-19T13:52:27.401Z,8.10
2017-05-19T13:54:54.550Z,8.08
2017-05-19T13:57:21.226Z,8.98
2017-05-19T13:59:47.944Z,8.52
2017-05-19T14:02:14.630Z,9.06
2017-05-19T14:04:41.331Z,11.70
2017-05-19T14:07:08.044Z,9.46
2017-05-19T14:09:34.739Z,9.20
2017-05-19T14:12:01.450Z,9.04
2017-05-19T14:14:28.133Z,9.60
2017-05-19T14:16:54.835Z,9.90
2017-05-19T14:19:21.530Z,10.88
2017-05-19T14:21:48.217Z,9.00
2017-05-19T14:24:15.092Z,9.64
2017-05-19T14:26:42.076Z,9.50
2017-05-19T14:29:08.779Z,8.38
2017-05-19T14:31:35.475Z,10.18
2017-05-19T14:34:02.159Z,9.20
2017-05-19T14:36:28.872Z,8.02
2017-05-19T14:38:55.555Z,9.08
2017-05-19T14:41:22.248Z,9.48
2017-05-19T14:43:49.175Z,8.88
2017-05-19T14:46:15.860Z,8.92
2017-05-19T14:48:42.579Z,9.24
2017-05-19T14:51:09.267Z,9.76
2017-05-19T14:53:35.965Z,10.52
2017-05-19T14:56:02.664Z,10.36
2017-05-19T14:58:29.343Z,11.08
2017-05-19T15:00:56.059Z,11.46
2017-05-19T15:03:22.743Z,12.26
2017-05-19T15:05:49.438Z,10.92
2017-05-19T15:08:16.382Z,12.80
2017-05-19T15:10:43.062Z,11.02
2017-05-19T15:13:10.070Z,10.58
2017-05-19T15:15:36.754Z,10.52
2017-05-19T15:18:03.451Z,12.20
2017-05-19T15:20:30.148Z,13.80
2017-05-19T15:22:56.834Z,15.20
2017-05-19T15:25:23.550Z,17.24
2017-05-19T15:27:50.239Z,13.34
2017-05-19T15:30:16.918Z,17.68
2017-05-19T15:32:43.624Z,18.10
2017-05-19T15:35:10.328Z,17.78
2017-05-19T15:37:37.028Z,14.32
2017-05-19T15:40:03.757Z,17.90
2017-05-19T15:42:30.494Z,16.04
2017-05-19T15:44:57.191Z,17.76
2017-05-19T15:47:24.286Z,24.12
2017-05-19T15:49:51.008Z,18.84
2017-05-19T15:52:17.717Z,17.58
2017-05-19T15:54:44.409Z,20.48
2017-05-19T15:57:11.111Z,14.00
2017-05-19T15:59:37.824Z,15.08
2017-05-19T16:02:04.523Z,14.52
2017-05-19T16:04:31.224Z,15.26
2017-05-19T16:06:57.906Z,15.02
2017-05-19T16:09:24.607Z,15.42
2017-05-19T16:11:51.315Z,18.02
2017-05-19T16:14:18.040Z,15.80
2017-05-19T16:16:44.740Z,16.90
2017-05-19T16:19:11.442Z,15.12
2017-05-19T16:21:38.135Z,17.28
2017-05-19T16:24:04.823Z,16.04
2017-05-19T16:26:31.544Z,17.52
2017-05-19T16:28:58.231Z,17.60
2017-05-19T16:31:24.940Z,21.96
2017-05-19T16:33:51.650Z,20.34
2017-05-19T16:36:18.351Z,23.92
2017-05-19T16:38:45.084Z,19.64
2017-05-19T16:41:11.781Z,21.36
2017-05-19T16:43:38.485Z,20.80
2017-05-19T16:46:05.199Z,26.48
2017-05-19T16:48:31.894Z,21.34
2017-05-19T16:50:58.598Z,18.50
2017-05-19T16:53:25.283Z,22.20
2017-05-19T16:55:51.963Z,16.80
2017-05-19T16:58:25.531Z,18.82
2017-05-19T17:00:52.227Z,17.18
2017-05-19T17:03:18.946Z,19.16
2017-05-19T17:05:45.647Z,20.72
2017-05-19T17:08:12.333Z,18.64
2017-05-19T17:10:39.050Z,24.60
2017-05-19T17:13:05.730Z,23.48
2017-05-19T17:15:32.415Z,20.84
2017-05-19T17:17:59.232Z,22.14
2017-05-19T17:20:25.915Z,20.66
2017-05-19T17:22:52.598Z,23.84
2017-05-19T17:25:19.302Z,25.34
2017-05-19T17:27:46.208Z,23.36
2017-05-19T17:30:12.914Z,26.68
2017-05-19T17:32:39.668Z,26.16
2017-05-19T17:35:06.355Z,22.42
2017-05-19T17:37:33.060Z,22.78
2017-05-19T17:39:59.759Z,27.64
2017-05-19T17:42:26.471Z,28.52
2017-05-19T17:44:53.164Z,27.30
2017-05-19T17:47:19.112Z,26.32
2017-05-19T17:49:45.820Z,27.34
2017-05-19T17:52:12.763Z,24.04
2017-05-19T17:54:39.484Z,30.58
2017-05-19T17:57:06.184Z,27.56
2017-05-19T17:59:32.890Z,27.70
2017-05-19T18:01:59.585Z,32.98
2017-05-19T18:04:26.288Z,36.62
2017-05-19T18:06:53.011Z,31.98
2017-05-19T18:09:19.705Z,37.92
2017-05-19T18:11:46.414Z,37.80
2017-05-19T18:14:13.147Z,36.00
2017-05-19T18:16:39.847Z,37.42
2017-05-19T18:19:06.579Z,29.32
2017-05-19T18:21:33.275Z,32.56
2017-05-19T18:23:59.967Z,31.52
2017-05-19T18:26:26.679Z,35.74
2017-05-19T18:28:53.375Z,35.52
2017-05-19T18:31:20.111Z,30.00
2017-05-19T18:33:46.813Z,31.70
2017-05-19T18:36:13.508Z,28.98
2017-05-19T18:38:40.247Z,28.32
2017-05-19T18:41:06.940Z,34.54
2017-05-19T18:43:33.655Z,29.02
2017-05-19T18:46:00.355Z,30.64
2017-05-19T18:48:27.048Z,25.76
2017-05-19T18:50:53.764Z,27.54
2017-05-19T18:53:20.450Z,27.48
2017-05-19T18:55:47.165Z,27.02
2017-05-19T18:58:13.866Z,27.40
2017-05-19T19:00:40.567Z,32.42
2017-05-19T19:03:07.265Z,26.82
2017-05-19T19:05:33.972Z,24.66
2017-05-19T19:08:00.687Z,22.68
2017-05-19T19:10:27.381Z,28.18
2017-05-19T19:12:54.089Z,25.92
2017-05-19T19:15:27.830Z,26.48
2017-05-19T19:17:54.658Z,25.22
2017-05-19T19:20:21.383Z,25.28
2017-05-19T19:22:48.070Z,25.68
2017-05-19T19:25:14.766Z,25.38
2017-05-19T19:27:41.462Z,31.40
2017-05-19T19:30:08.143Z,27.56
2017-05-19T19:32:34.843Z,27.10
2017-05-19T19:35:01.530Z,28.86
2017-05-19T19:37:28.227Z,28.12
2017-05-19T19:39:54.935Z,26.06
2017-05-19T19:42:21.707Z,25.22
2017-05-19T19:44:48.448Z,33.94
2017-05-19T19:47:15.135Z,29.08
2017-05-19T19:49:41.828Z,26.58
2017-05-19T19:52:08.526Z,29.18
2017-05-19T19:54:35.225Z,26.58
2017-05-19T19:57:01.939Z,27.34
2017-05-19T19:59:28.640Z,26.66
2017-05-19T20:01:55.323Z,30.20
2017-05-19T20:04:22.024Z,29.96
2017-05-19T20:06:48.746Z,27.52
2017-05-19T20:09:15.483Z,29.22
2017-05-19T20:11:42.180Z,28.08
2017-05-19T20:14:08.884Z,27.74
2017-05-19T20:16:35.589Z,26.92
2017-05-19T20:19:02.279Z,26.32
2017-05-19T20:21:29.016Z,26.10
2017-05-19T20:23:55.703Z,27.66
2017-05-19T20:26:22.395Z,29.66
2017-05-19T20:28:49.179Z,29.20
2017-05-19T20:31:15.879Z,30.04
2017-05-19T20:33:42.599Z,26.12
2017-05-19T20:36:09.304Z,26.46
2017-05-19T20:38:35.996Z,30.28
2017-05-19T20:41:02.688Z,31.22
2017-05-19T20:43:29.379Z,33.38
2017-05-19T20:45:56.107Z,32.04
2017-05-19T20:48:22.796Z,32.44
2017-05-19T20:50:49.494Z,36.34
2017-05-19T20:53:16.189Z,32.48
2017-05-19T20:55:42.891Z,29.16
2017-05-19T20:58:09.616Z,27.38
2017-05-19T21:00:36.309Z,31.40
2017-05-19T21:03:02.999Z,33.12
2017-05-19T21:05:29.743Z,27.40
2017-05-19T21:07:56.502Z,30.44
2017-05-19T21:10:23.196Z,33.78
2017-05-19T21:12:49.902Z,32.82
2017-05-19T21:15:16.603Z,31.96
2017-05-19T21:17:43.287Z,32.30
2017-05-19T21:20:10.012Z,35.36
2017-05-19T21:22:36.695Z,39.72
2017-05-19T21:25:03.391Z,42.96
2017-05-19T21:27:30.107Z,37.46
2017-05-19T21:29:56.845Z,37.90
2017-05-19T21:32:23.559Z,35.34
2017-05-19T21:34:50.264Z,36.60
2017-05-19T21:37:16.963Z,35.68
2017-05-19T21:39:43.672Z,41.38
2017-05-19T21:42:10.375Z,43.46
2017-05-19T21:44:37.101Z,39.64
2017-05-19T21:47:03.790Z,38.68
2017-05-19T21:49:30.492Z,42.00
2017-05-19T21:51:57.197Z,47.82
2017-05-19T21:54:23.897Z,45.02
2017-05-19T21:56:50.606Z,48.00
2017-05-19T21:59:17.300Z,57.70
2017-05-19T22:01:44.037Z,60.08
2017-05-19T22:04:10.735Z,53.28
2017-05-19T22:06:37.431Z,56.04
2017-05-19T22:09:04.156Z,61.10
2017-05-19T22:11:30.862Z,63.62
2017-05-19T22:13:57.558Z,55.76
2017-05-19T22:16:24.255Z,51.74
2017-05-19T22:18:50.952Z,48.18
2017-05-19T22:21:17.675Z,49.80
2017-05-19T22:23:44.374Z,52.90
2017-05-19T22:26:11.179Z,47.90
2017-05-19T22:28:37.879Z,46.54
2017-05-19T22:31:04.584Z,51.04
2017-05-19T22:33:31.320Z,39.36
2017-05-19T22:35:58.006Z,35.94
2017-05-19T22:38:24.701Z,39.30
2017-05-19T22:40:51.407Z,40.80
2017-05-19T22:43:18.096Z,37.46
2017-05-19T22:45:44.818Z,39.36
2017-05-19T22:48:11.500Z,40.80
2017-05-19T22:50:38.199Z,41.56
2017-05-19T22:53:04.904Z,46.14
2017-05-19T22:55:31.596Z,48.60
2017-05-19T22:57:58.316Z,46.38
2017-05-19T23:00:25.003Z,42.30
2017-05-19T23:02:51.707Z,47.58
2017-05-19T23:05:18.415Z,48.94
2017-05-19T23:07:45.207Z,46.48
2017-05-19T23:10:11.935Z,45.42
2017-05-19T23:12:38.628Z,44.70
2017-05-19T23:15:05.330Z,50.92
2017-05-19T23:17:32.030Z,51.64
2017-05-19T23:19:58.724Z,46.00
2017-05-19T23:22:25.447Z,47.42
2017-05-19T23:24:52.137Z,53.90
2017-05-19T23:27:18.829Z,58.86
2017-05-19T23:29:45.540Z,54.92
2017-05-19T23:32:12.234Z,58.84
2017-05-19T23:34:38.946Z,63.14
2017-05-19T23:37:05.639Z,60.16
2017-05-19T23:39:32.351Z,52.80
2017-05-19T23:41:59.061Z,57.56
2017-05-19T23:44:25.757Z,59.66
2017-05-19T23:46:52.478Z,58.16
2017-05-19T23:49:19.204Z,57.76
2017-05-19T23:51:45.897Z,61.44
2017-05-19T23:54:12.597Z,58.58
2017-05-19T23:56:39.299Z,60.86
2017-05-19T23:59:06.015Z,65.52
